sensor_id;sensor_type;location;lat;lon;timestamp;temperature;humidity
48551;DHT22;34397;51.176;6.738;2023-07-31T00:00:21;16.10;89.70
48551;DHT22;34397;51.176;6.738;2023-07-31T00:02:53;16.10;89.70
48551;DHT22;34397;51.176;6.738;2023-07-31T00:05:25;16.10;90.00
48551;DHT22;34397;51.176;6.738;2023-07-31T00:07:57;16.10;89.80
48551;DHT22;34397;51.176;6.738;2023-07-31T00:10:30;16.10;90.00
48551;DHT22;34397;51.176;6.738;2023-07-31T00:13:02;16.10;89.90
48551;DHT22;34397;51.176;6.738;2023-07-31T00:15:33;16.10;89.70
48551;DHT22;34397;51.176;6.738;2023-07-31T00:18:05;16.10;89.20
48551;DHT22;34397;51.176;6.738;2023-07-31T00:20:37;16.10;89.50
48551;DHT22;34397;51.176;6.738;2023-07-31T00:23:08;16.20;89.90
48551;DHT22;34397;51.176;6.738;2023-07-31T00:25:41;16.20;89.00
48551;DHT22;34397;51.176;6.738;2023-07-31T00:28:13;16.20;89.30
48551;DHT22;34397;51.176;6.738;2023-07-31T00:30:45;16.20;89.00
48551;DHT22;34397;51.176;6.738;2023-07-31T00:33:17;16.20;89.00
48551;DHT22;34397;51.176;6.738;2023-07-31T00:35:48;16.20;89.30
48551;DHT22;34397;51.176;6.738;2023-07-31T00:38:21;16.20;88.80
48551;DHT22;34397;51.176;6.738;2023-07-31T00:40:54;16.20;89.00
48551;DHT22;34397;51.176;6.738;2023-07-31T00:43:26;16.20;88.20
48551;DHT22;34397;51.176;6.738;2023-07-31T00:45:57;16.20;88.40
48551;DHT22;34397;51.176;6.738;2023-07-31T00:48:29;16.30;88.00
48551;DHT22;34397;51.176;6.738;2023-07-31T00:51:01;16.30;87.60
48551;DHT22;34397;51.176;6.738;2023-07-31T00:53:33;16.20;87.20
48551;DHT22;34397;51.176;6.738;2023-07-31T00:56:06;16.30;87.80
48551;DHT22;34397;51.176;6.738;2023-07-31T00:58:39;16.30;86.80
48551;DHT22;34397;51.176;6.738;2023-07-31T01:01:10;16.30;87.20
48551;DHT22;34397;51.176;6.738;2023-07-31T01:03:42;16.40;87.50
48551;DHT22;34397;51.176;6.738;2023-07-31T01:06:15;16.40;86.90
48551;DHT22;34397;51.176;6.738;2023-07-31T01:08:52;16.40;86.80
48551;DHT22;34397;51.176;6.738;2023-07-31T01:11:28;16.40;87.10
48551;DHT22;34397;51.176;6.738;2023-07-31T01:14:00;16.40;86.70
48551;DHT22;34397;51.176;6.738;2023-07-31T01:16:32;16.50;86.50
48551;DHT22;34397;51.176;6.738;2023-07-31T01:19:04;16.50;86.90
48551;DHT22;34397;51.176;6.738;2023-07-31T01:21:41;16.50;86.20
48551;DHT22;34397;51.176;6.738;2023-07-31T01:24:41;16.50;85.80
48551;DHT22;34397;51.176;6.738;2023-07-31T01:27:23;16.50;85.60
48551;DHT22;34397;51.176;6.738;2023-07-31T01:29:58;16.50;84.80
48551;DHT22;34397;51.176;6.738;2023-07-31T01:32:31;16.50;84.80
48551;DHT22;34397;51.176;6.738;2023-07-31T01:35:04;16.50;85.40
48551;DHT22;34397;51.176;6.738;2023-07-31T01:37:36;16.50;84.40
48551;DHT22;34397;51.176;6.738;2023-07-31T01:40:08;16.50;85.10
48551;DHT22;34397;51.176;6.738;2023-07-31T01:42:42;16.60;84.70
48551;DHT22;34397;51.176;6.738;2023-07-31T01:45:13;16.50;84.10
48551;DHT22;34397;51.176;6.738;2023-07-31T01:47:45;16.60;83.40
48551;DHT22;34397;51.176;6.738;2023-07-31T01:50:17;16.60;83.40
48551;DHT22;34397;51.176;6.738;2023-07-31T01:52:48;16.60;84.20
48551;DHT22;34397;51.176;6.738;2023-07-31T01:55:20;16.60;84.50
48551;DHT22;34397;51.176;6.738;2023-07-31T01:57:53;16.60;83.30
48551;DHT22;34397;51.176;6.738;2023-07-31T02:00:25;16.60;84.10
48551;DHT22;34397;51.176;6.738;2023-07-31T02:02:57;16.60;83.50
48551;DHT22;34397;51.176;6.738;2023-07-31T02:05:28;16.60;83.90
48551;DHT22;34397;51.176;6.738;2023-07-31T02:08:00;16.70;84.00
48551;DHT22;34397;51.176;6.738;2023-07-31T02:10:32;16.70;83.10
48551;DHT22;34397;51.176;6.738;2023-07-31T02:13:05;16.70;82.90
48551;DHT22;34397;51.176;6.738;2023-07-31T02:15:36;16.70;83.40
48551;DHT22;34397;51.176;6.738;2023-07-31T02:18:08;16.70;83.60
48551;DHT22;34397;51.176;6.738;2023-07-31T02:20:40;16.70;83.50
48551;DHT22;34397;51.176;6.738;2023-07-31T02:23:12;16.70;83.60
48551;DHT22;34397;51.176;6.738;2023-07-31T02:25:43;16.70;83.40
48551;DHT22;34397;51.176;6.738;2023-07-31T02:28:17;16.80;83.40
48551;DHT22;34397;51.176;6.738;2023-07-31T02:30:49;16.80;83.60
48551;DHT22;34397;51.176;6.738;2023-07-31T02:33:21;16.80;83.40
48551;DHT22;34397;51.176;6.738;2023-07-31T02:35:53;16.90;83.30
48551;DHT22;34397;51.176;6.738;2023-07-31T02:38:24;16.90;83.30
48551;DHT22;34397;51.176;6.738;2023-07-31T02:40:56;16.90;83.00
48551;DHT22;34397;51.176;6.738;2023-07-31T02:43:29;16.90;83.20
48551;DHT22;34397;51.176;6.738;2023-07-31T02:46:01;16.90;83.20
48551;DHT22;34397;51.176;6.738;2023-07-31T02:48:33;16.90;84.00
48551;DHT22;34397;51.176;6.738;2023-07-31T02:51:05;16.80;83.40
48551;DHT22;34397;51.176;6.738;2023-07-31T02:53:36;16.90;83.50
48551;DHT22;34397;51.176;6.738;2023-07-31T02:56:08;16.90;83.20
48551;DHT22;34397;51.176;6.738;2023-07-31T02:58:41;16.90;83.10
48551;DHT22;34397;51.176;6.738;2023-07-31T03:01:13;16.90;83.40
48551;DHT22;34397;51.176;6.738;2023-07-31T03:03:44;16.90;83.20
48551;DHT22;34397;51.176;6.738;2023-07-31T03:06:16;17.00;83.20
48551;DHT22;34397;51.176;6.738;2023-07-31T03:08:48;17.00;83.20
48551;DHT22;34397;51.176;6.738;2023-07-31T03:11:19;17.00;83.90
48551;DHT22;34397;51.176;6.738;2023-07-31T03:13:52;17.00;83.60
48551;DHT22;34397;51.176;6.738;2023-07-31T03:16:24;17.00;83.40
48551;DHT22;34397;51.176;6.738;2023-07-31T03:18:56;17.00;83.80
48551;DHT22;34397;51.176;6.738;2023-07-31T03:21:27;17.00;83.80
48551;DHT22;34397;51.176;6.738;2023-07-31T03:23:59;17.00;82.80
48551;DHT22;34397;51.176;6.738;2023-07-31T03:26:31;17.00;83.10
48551;DHT22;34397;51.176;6.738;2023-07-31T03:29:04;17.10;83.30
48551;DHT22;34397;51.176;6.738;2023-07-31T03:31:36;17.00;82.20
48551;DHT22;34397;51.176;6.738;2023-07-31T03:34:07;17.00;82.90
48551;DHT22;34397;51.176;6.738;2023-07-31T03:36:39;17.00;83.10
48551;DHT22;34397;51.176;6.738;2023-07-31T03:39:11;17.00;82.80
48551;DHT22;34397;51.176;6.738;2023-07-31T03:41:42;17.10;82.80
48551;DHT22;34397;51.176;6.738;2023-07-31T03:44:15;17.10;82.80
48551;DHT22;34397;51.176;6.738;2023-07-31T03:46:47;17.10;83.10
48551;DHT22;34397;51.176;6.738;2023-07-31T03:49:19;17.10;82.80
48551;DHT22;34397;51.176;6.738;2023-07-31T03:51:51;17.10;83.20
48551;DHT22;34397;51.176;6.738;2023-07-31T03:54:22;17.10;83.10
48551;DHT22;34397;51.176;6.738;2023-07-31T03:56:54;17.10;83.00
48551;DHT22;34397;51.176;6.738;2023-07-31T03:59:27;17.10;82.90
48551;DHT22;34397;51.176;6.738;2023-07-31T04:01:59;17.10;83.30
48551;DHT22;34397;51.176;6.738;2023-07-31T04:04:31;17.10;83.10
48551;DHT22;34397;51.176;6.738;2023-07-31T04:07:02;17.20;82.70
48551;DHT22;34397;51.176;6.738;2023-07-31T04:09:34;17.20;83.00
48551;DHT22;34397;51.176;6.738;2023-07-31T04:12:06;17.20;82.60
48551;DHT22;34397;51.176;6.738;2023-07-31T04:14:39;17.20;82.70
48551;DHT22;34397;51.176;6.738;2023-07-31T04:17:11;17.20;83.20
48551;DHT22;34397;51.176;6.738;2023-07-31T04:19:43;17.20;83.60
48551;DHT22;34397;51.176;6.738;2023-07-31T04:22:15;17.20;83.40
48551;DHT22;34397;51.176;6.738;2023-07-31T04:24:46;17.20;83.50
48551;DHT22;34397;51.176;6.738;2023-07-31T04:27:18;17.20;83.60
48551;DHT22;34397;51.176;6.738;2023-07-31T04:29:51;17.30;83.70
48551;DHT22;34397;51.176;6.738;2023-07-31T04:32:23;17.20;83.20
48551;DHT22;34397;51.176;6.738;2023-07-31T04:34:55;17.20;82.70
48551;DHT22;34397;51.176;6.738;2023-07-31T04:37:26;17.20;83.30
48551;DHT22;34397;51.176;6.738;2023-07-31T04:39:58;17.20;83.40
48551;DHT22;34397;51.176;6.738;2023-07-31T04:42:30;17.20;83.40
48551;DHT22;34397;51.176;6.738;2023-07-31T04:45:03;17.30;83.50
48551;DHT22;34397;51.176;6.738;2023-07-31T04:47:36;17.30;83.00
48551;DHT22;34397;51.176;6.738;2023-07-31T04:50:07;17.30;83.40
48551;DHT22;34397;51.176;6.738;2023-07-31T04:52:39;17.30;83.60
48551;DHT22;34397;51.176;6.738;2023-07-31T04:55:11;17.30;83.70
48551;DHT22;34397;51.176;6.738;2023-07-31T04:57:43;17.40;83.60
48551;DHT22;34397;51.176;6.738;2023-07-31T05:00:17;17.40;83.70
48551;DHT22;34397;51.176;6.738;2023-07-31T05:02:48;17.40;83.40
48551;DHT22;34397;51.176;6.738;2023-07-31T05:05:20;17.40;83.70
48551;DHT22;34397;51.176;6.738;2023-07-31T05:07:52;17.50;82.50
48551;DHT22;34397;51.176;6.738;2023-07-31T05:10:23;17.50;82.70
48551;DHT22;34397;51.176;6.738;2023-07-31T05:12:55;17.50;82.40
48551;DHT22;34397;51.176;6.738;2023-07-31T05:15:29;17.50;82.40
48551;DHT22;34397;51.176;6.738;2023-07-31T05:18:00;17.50;81.90
48551;DHT22;34397;51.176;6.738;2023-07-31T05:20:32;17.50;82.90
48551;DHT22;34397;51.176;6.738;2023-07-31T05:23:05;17.60;82.30
48551;DHT22;34397;51.176;6.738;2023-07-31T05:25:36;17.60;83.30
48551;DHT22;34397;51.176;6.738;2023-07-31T05:28:08;17.60;82.60
48551;DHT22;34397;51.176;6.738;2023-07-31T05:30:41;17.60;82.10
48551;DHT22;34397;51.176;6.738;2023-07-31T05:33:13;17.70;82.80
48551;DHT22;34397;51.176;6.738;2023-07-31T05:35:44;17.70;82.20
48551;DHT22;34397;51.176;6.738;2023-07-31T05:38:17;17.70;81.50
48551;DHT22;34397;51.176;6.738;2023-07-31T05:40:48;17.70;82.30
48551;DHT22;34397;51.176;6.738;2023-07-31T05:43:20;17.70;81.60
48551;DHT22;34397;51.176;6.738;2023-07-31T05:45:53;17.70;81.10
48551;DHT22;34397;51.176;6.738;2023-07-31T05:48:25;17.70;81.80
48551;DHT22;34397;51.176;6.738;2023-07-31T05:50:57;17.70;81.20
48551;DHT22;34397;51.176;6.738;2023-07-31T05:53:28;17.70;81.30
48551;DHT22;34397;51.176;6.738;2023-07-31T05:56:00;17.70;80.60
48551;DHT22;34397;51.176;6.738;2023-07-31T05:58:32;17.80;81.80
48551;DHT22;34397;51.176;6.738;2023-07-31T06:01:05;17.80;81.30
48551;DHT22;34397;51.176;6.738;2023-07-31T06:03:37;17.80;81.70
48551;DHT22;34397;51.176;6.738;2023-07-31T06:06:07;17.80;81.20
48551;DHT22;34397;51.176;6.738;2023-07-31T06:08:39;17.80;81.70
48551;DHT22;34397;51.176;6.738;2023-07-31T06:11:11;17.70;82.20
48551;DHT22;34397;51.176;6.738;2023-07-31T06:13:43;17.60;82.70
48551;DHT22;34397;51.176;6.738;2023-07-31T06:16:18;17.60;82.90
48551;DHT22;34397;51.176;6.738;2023-07-31T06:18:51;17.50;83.40
48551;DHT22;34397;51.176;6.738;2023-07-31T06:21:23;17.40;83.60
48551;DHT22;34397;51.176;6.738;2023-07-31T06:23:55;17.40;83.60
48551;DHT22;34397;51.176;6.738;2023-07-31T06:26:26;17.30;84.20
48551;DHT22;34397;51.176;6.738;2023-07-31T06:28:58;17.20;85.10
48551;DHT22;34397;51.176;6.738;2023-07-31T06:31:31;17.20;85.30
48551;DHT22;34397;51.176;6.738;2023-07-31T06:34:03;17.20;85.00
48551;DHT22;34397;51.176;6.738;2023-07-31T06:36:35;17.10;85.60
48551;DHT22;34397;51.176;6.738;2023-07-31T06:39:07;17.10;86.20
48551;DHT22;34397;51.176;6.738;2023-07-31T06:41:39;17.10;86.30
48551;DHT22;34397;51.176;6.738;2023-07-31T06:44:11;17.00;86.10
48551;DHT22;34397;51.176;6.738;2023-07-31T06:46:44;17.00;86.40
48551;DHT22;34397;51.176;6.738;2023-07-31T06:49:15;17.00;87.10
48551;DHT22;34397;51.176;6.738;2023-07-31T06:51:47;17.00;87.20
48551;DHT22;34397;51.176;6.738;2023-07-31T06:54:19;17.00;87.10
48551;DHT22;34397;51.176;6.738;2023-07-31T06:56:51;17.00;87.30
48551;DHT22;34397;51.176;6.738;2023-07-31T06:59:22;17.00;87.10
48551;DHT22;34397;51.176;6.738;2023-07-31T07:01:55;17.00;87.00
48551;DHT22;34397;51.176;6.738;2023-07-31T07:04:27;17.00;87.00
48551;DHT22;34397;51.176;6.738;2023-07-31T07:06:59;17.00;86.80
48551;DHT22;34397;51.176;6.738;2023-07-31T07:09:30;17.10;86.70
48551;DHT22;34397;51.176;6.738;2023-07-31T07:12:02;17.10;86.70
48551;DHT22;34397;51.176;6.738;2023-07-31T07:14:34;17.10;86.80
48551;DHT22;34397;51.176;6.738;2023-07-31T07:17:07;17.10;86.60
48551;DHT22;34397;51.176;6.738;2023-07-31T07:19:39;17.10;85.90
48551;DHT22;34397;51.176;6.738;2023-07-31T07:22:11;17.10;86.60
48551;DHT22;34397;51.176;6.738;2023-07-31T07:24:43;17.10;86.50
48551;DHT22;34397;51.176;6.738;2023-07-31T07:27:15;17.10;86.30
48551;DHT22;34397;51.176;6.738;2023-07-31T07:29:47;17.10;86.40
48551;DHT22;34397;51.176;6.738;2023-07-31T07:32:20;17.00;86.60
48551;DHT22;34397;51.176;6.738;2023-07-31T07:34:52;17.00;86.90
48551;DHT22;34397;51.176;6.738;2023-07-31T07:37:23;16.90;87.20
48551;DHT22;34397;51.176;6.738;2023-07-31T07:39:55;16.80;88.00
48551;DHT22;34397;51.176;6.738;2023-07-31T07:42:27;16.80;88.30
48551;DHT22;34397;51.176;6.738;2023-07-31T07:44:59;16.80;88.30
48551;DHT22;34397;51.176;6.738;2023-07-31T07:47:32;16.70;89.20
48551;DHT22;34397;51.176;6.738;2023-07-31T07:50:04;16.70;89.10
48551;DHT22;34397;51.176;6.738;2023-07-31T07:52:37;16.70;89.40
48551;DHT22;34397;51.176;6.738;2023-07-31T07:55:09;16.70;89.40
48551;DHT22;34397;51.176;6.738;2023-07-31T07:57:40;16.60;89.40
48551;DHT22;34397;51.176;6.738;2023-07-31T08:00:14;16.60;89.90
48551;DHT22;34397;51.176;6.738;2023-07-31T08:02:48;16.60;89.90
48551;DHT22;34397;51.176;6.738;2023-07-31T08:05:20;16.60;89.70
48551;DHT22;34397;51.176;6.738;2023-07-31T08:07:52;16.60;89.80
48551;DHT22;34397;51.176;6.738;2023-07-31T08:10:23;16.60;90.00
48551;DHT22;34397;51.176;6.738;2023-07-31T08:12:55;16.60;90.00
48551;DHT22;34397;51.176;6.738;2023-07-31T08:15:27;16.50;90.00
48551;DHT22;34397;51.176;6.738;2023-07-31T08:18:00;16.50;90.00
48551;DHT22;34397;51.176;6.738;2023-07-31T08:20:32;16.50;90.50
48551;DHT22;34397;51.176;6.738;2023-07-31T08:23:04;16.60;90.40
48551;DHT22;34397;51.176;6.738;2023-07-31T08:25:35;16.60;90.30
48551;DHT22;34397;51.176;6.738;2023-07-31T08:28:07;16.60;90.40
48551;DHT22;34397;51.176;6.738;2023-07-31T08:30:39;16.60;90.20
48551;DHT22;34397;51.176;6.738;2023-07-31T08:33:13;16.60;90.20
48551;DHT22;34397;51.176;6.738;2023-07-31T08:35:45;16.60;90.10
48551;DHT22;34397;51.176;6.738;2023-07-31T08:38:17;16.70;90.00
48551;DHT22;34397;51.176;6.738;2023-07-31T08:40:48;16.70;89.70
48551;DHT22;34397;51.176;6.738;2023-07-31T08:43:20;16.70;90.10
48551;DHT22;34397;51.176;6.738;2023-07-31T08:45:52;16.70;89.90
48551;DHT22;34397;51.176;6.738;2023-07-31T08:48:25;16.70;90.00
48551;DHT22;34397;51.176;6.738;2023-07-31T08:50:57;16.70;88.90
48551;DHT22;34397;51.176;6.738;2023-07-31T08:53:29;16.80;89.60
48551;DHT22;34397;51.176;6.738;2023-07-31T08:56:00;16.80;89.90
48551;DHT22;34397;51.176;6.738;2023-07-31T08:58:32;16.80;89.50
48551;DHT22;34397;51.176;6.738;2023-07-31T09:01:04;16.90;90.10
48551;DHT22;34397;51.176;6.738;2023-07-31T09:03:37;16.80;89.10
48551;DHT22;34397;51.176;6.738;2023-07-31T09:06:10;16.90;89.60
48551;DHT22;34397;51.176;6.738;2023-07-31T09:08:43;16.90;89.80
48551;DHT22;34397;51.176;6.738;2023-07-31T09:11:15;16.90;89.80
48551;DHT22;34397;51.176;6.738;2023-07-31T09:13:46;16.90;89.50
48551;DHT22;34397;51.176;6.738;2023-07-31T09:16:18;16.90;90.00
48551;DHT22;34397;51.176;6.738;2023-07-31T09:18:55;16.90;90.10
48551;DHT22;34397;51.176;6.738;2023-07-31T09:21:27;16.80;90.60
48551;DHT22;34397;51.176;6.738;2023-07-31T09:23:59;16.80;90.20
48551;DHT22;34397;51.176;6.738;2023-07-31T09:26:31;16.80;90.30
48551;DHT22;34397;51.176;6.738;2023-07-31T09:29:04;16.90;90.20
48551;DHT22;34397;51.176;6.738;2023-07-31T09:31:38;16.90;90.00
48551;DHT22;34397;51.176;6.738;2023-07-31T09:34:12;16.90;90.00
48551;DHT22;34397;51.176;6.738;2023-07-31T09:36:44;17.00;90.00
48551;DHT22;34397;51.176;6.738;2023-07-31T09:39:17;17.00;89.60
48551;DHT22;34397;51.176;6.738;2023-07-31T09:41:53;17.00;89.80
48551;DHT22;34397;51.176;6.738;2023-07-31T09:44:36;17.00;90.00
48551;DHT22;34397;51.176;6.738;2023-07-31T09:47:20;16.90;90.00
48551;DHT22;34397;51.176;6.738;2023-07-31T09:49:54;16.90;89.80
48551;DHT22;34397;51.176;6.738;2023-07-31T09:52:26;16.90;90.20
48551;DHT22;34397;51.176;6.738;2023-07-31T09:54:58;16.80;90.10
48551;DHT22;34397;51.176;6.738;2023-07-31T09:57:30;16.80;90.50
48551;DHT22;34397;51.176;6.738;2023-07-31T10:00:02;16.80;90.50
48551;DHT22;34397;51.176;6.738;2023-07-31T10:02:35;16.70;90.70
48551;DHT22;34397;51.176;6.738;2023-07-31T10:05:09;16.70;90.80
48551;DHT22;34397;51.176;6.738;2023-07-31T10:07:45;16.70;90.90
48551;DHT22;34397;51.176;6.738;2023-07-31T10:10:20;16.70;90.80
48551;DHT22;34397;51.176;6.738;2023-07-31T10:12:53;16.70;91.10
48551;DHT22;34397;51.176;6.738;2023-07-31T10:15:25;16.70;91.20
48551;DHT22;34397;51.176;6.738;2023-07-31T10:17:57;16.60;91.10
48551;DHT22;34397;51.176;6.738;2023-07-31T10:20:31;16.60;91.30
48551;DHT22;34397;51.176;6.738;2023-07-31T10:23:03;16.60;91.40
48551;DHT22;34397;51.176;6.738;2023-07-31T10:25:35;16.60;91.50
48551;DHT22;34397;51.176;6.738;2023-07-31T10:28:06;16.70;91.20
48551;DHT22;34397;51.176;6.738;2023-07-31T10:30:39;16.70;91.30
48551;DHT22;34397;51.176;6.738;2023-07-31T10:33:11;16.80;91.60
48551;DHT22;34397;51.176;6.738;2023-07-31T10:35:44;16.80;91.70
48551;DHT22;34397;51.176;6.738;2023-07-31T10:38:16;17.00;92.00
48551;DHT22;34397;51.176;6.738;2023-07-31T10:40:47;17.10;92.10
48551;DHT22;34397;51.176;6.738;2023-07-31T10:43:24;17.30;92.00
48551;DHT22;34397;51.176;6.738;2023-07-31T10:45:57;17.40;90.80
48551;DHT22;34397;51.176;6.738;2023-07-31T10:48:32;17.50;90.90
48551;DHT22;34397;51.176;6.738;2023-07-31T10:51:08;17.60;90.80
48551;DHT22;34397;51.176;6.738;2023-07-31T10:53:41;17.80;89.00
48551;DHT22;34397;51.176;6.738;2023-07-31T10:56:13;17.80;89.50
48551;DHT22;34397;51.176;6.738;2023-07-31T10:58:51;17.80;87.50
48551;DHT22;34397;51.176;6.738;2023-07-31T11:04:22;17.90;87.30
48551;DHT22;34397;51.176;6.738;2023-07-31T11:06:56;17.90;88.10
48551;DHT22;34397;51.176;6.738;2023-07-31T11:09:29;17.90;87.00
48551;DHT22;34397;51.176;6.738;2023-07-31T11:12:02;18.00;88.30
48551;DHT22;34397;51.176;6.738;2023-07-31T11:14:34;18.00;88.20
48551;DHT22;34397;51.176;6.738;2023-07-31T11:17:06;18.10;87.30
48551;DHT22;34397;51.176;6.738;2023-07-31T11:19:38;18.20;85.70
48551;DHT22;34397;51.176;6.738;2023-07-31T11:22:11;18.30;86.10
48551;DHT22;34397;51.176;6.738;2023-07-31T11:24:43;18.30;85.60
48551;DHT22;34397;51.176;6.738;2023-07-31T11:27:15;18.40;84.70
48551;DHT22;34397;51.176;6.738;2023-07-31T11:29:46;18.60;85.90
48551;DHT22;34397;51.176;6.738;2023-07-31T11:32:19;18.70;83.30
48551;DHT22;34397;51.176;6.738;2023-07-31T11:34:51;18.80;83.20
48551;DHT22;34397;51.176;6.738;2023-07-31T11:37:25;18.80;82.00
48551;DHT22;34397;51.176;6.738;2023-07-31T11:40:10;18.80;82.30
48551;DHT22;34397;51.176;6.738;2023-07-31T11:42:42;18.80;81.30
48551;DHT22;34397;51.176;6.738;2023-07-31T11:45:14;18.70;80.60
48551;DHT22;34397;51.176;6.738;2023-07-31T11:47:46;18.80;82.80
48551;DHT22;34397;51.176;6.738;2023-07-31T11:50:17;18.70;82.40
48551;DHT22;34397;51.176;6.738;2023-07-31T11:52:51;18.80;81.90
48551;DHT22;34397;51.176;6.738;2023-07-31T11:55:24;18.70;82.10
48551;DHT22;34397;51.176;6.738;2023-07-31T11:57:57;18.70;83.30
48551;DHT22;34397;51.176;6.738;2023-07-31T12:00:29;18.70;80.70
48551;DHT22;34397;51.176;6.738;2023-07-31T12:03:00;18.70;82.00
48551;DHT22;34397;51.176;6.738;2023-07-31T12:05:32;18.70;81.00
48551;DHT22;34397;51.176;6.738;2023-07-31T12:08:09;18.80;81.40
48551;DHT22;34397;51.176;6.738;2023-07-31T12:10:42;18.80;81.00
48551;DHT22;34397;51.176;6.738;2023-07-31T12:13:19;18.80;80.90
48551;DHT22;34397;51.176;6.738;2023-07-31T12:15:54;18.80;81.60
48551;DHT22;34397;51.176;6.738;2023-07-31T12:18:27;18.70;81.80
48551;DHT22;34397;51.176;6.738;2023-07-31T12:20:59;18.70;82.20
48551;DHT22;34397;51.176;6.738;2023-07-31T12:23:34;18.80;82.30
48551;DHT22;34397;51.176;6.738;2023-07-31T12:26:08;18.80;82.20
48551;DHT22;34397;51.176;6.738;2023-07-31T12:28:41;18.80;82.40
48551;DHT22;34397;51.176;6.738;2023-07-31T12:31:14;18.90;82.60
48551;DHT22;34397;51.176;6.738;2023-07-31T12:33:48;18.90;83.10
48551;DHT22;34397;51.176;6.738;2023-07-31T12:36:21;19.00;82.70
48551;DHT22;34397;51.176;6.738;2023-07-31T12:38:54;19.00;83.00
48551;DHT22;34397;51.176;6.738;2023-07-31T12:41:26;19.00;82.00
48551;DHT22;34397;51.176;6.738;2023-07-31T12:43:58;18.90;83.00
48551;DHT22;34397;51.176;6.738;2023-07-31T12:46:29;19.10;84.10
48551;DHT22;34397;51.176;6.738;2023-07-31T12:49:01;19.10;82.70
48551;DHT22;34397;51.176;6.738;2023-07-31T12:51:33;19.10;82.30
48551;DHT22;34397;51.176;6.738;2023-07-31T12:54:07;19.10;81.50
48551;DHT22;34397;51.176;6.738;2023-07-31T12:56:39;19.10;80.60
48551;DHT22;34397;51.176;6.738;2023-07-31T12:59:11;19.10;80.80
48551;DHT22;34397;51.176;6.738;2023-07-31T13:01:43;19.20;81.70
48551;DHT22;34397;51.176;6.738;2023-07-31T13:04:14;19.20;81.00
48551;DHT22;34397;51.176;6.738;2023-07-31T13:06:46;19.20;80.70
48551;DHT22;34397;51.176;6.738;2023-07-31T13:09:19;19.30;80.50
48551;DHT22;34397;51.176;6.738;2023-07-31T13:11:51;19.30;82.10
48551;DHT22;34397;51.176;6.738;2023-07-31T13:14:22;19.40;80.70
48551;DHT22;34397;51.176;6.738;2023-07-31T13:16:54;19.40;80.70
48551;DHT22;34397;51.176;6.738;2023-07-31T13:19:26;19.50;78.40
48551;DHT22;34397;51.176;6.738;2023-07-31T13:21:58;19.50;79.60
48551;DHT22;34397;51.176;6.738;2023-07-31T13:24:31;19.50;77.40
48551;DHT22;34397;51.176;6.738;2023-07-31T13:27:03;19.60;78.60
48551;DHT22;34397;51.176;6.738;2023-07-31T13:29:35;19.60;79.80
48551;DHT22;34397;51.176;6.738;2023-07-31T13:32:09;19.70;79.10
48551;DHT22;34397;51.176;6.738;2023-07-31T13:34:41;19.80;79.40
48551;DHT22;34397;51.176;6.738;2023-07-31T13:37:12;19.80;76.10
48551;DHT22;34397;51.176;6.738;2023-07-31T13:39:46;19.90;76.50
48551;DHT22;34397;51.176;6.738;2023-07-31T13:42:17;20.00;75.60
48551;DHT22;34397;51.176;6.738;2023-07-31T13:44:49;20.00;75.10
48551;DHT22;34397;51.176;6.738;2023-07-31T13:47:21;20.10;74.50
48551;DHT22;34397;51.176;6.738;2023-07-31T13:49:52;20.10;76.20
48551;DHT22;34397;51.176;6.738;2023-07-31T13:52:24;20.20;76.50
48551;DHT22;34397;51.176;6.738;2023-07-31T13:54:57;20.30;74.50
48551;DHT22;34397;51.176;6.738;2023-07-31T13:57:29;20.30;76.10
48551;DHT22;34397;51.176;6.738;2023-07-31T14:00:01;20.40;74.40
48551;DHT22;34397;51.176;6.738;2023-07-31T14:02:32;20.50;75.70
48551;DHT22;34397;51.176;6.738;2023-07-31T14:05:04;20.50;75.40
48551;DHT22;34397;51.176;6.738;2023-07-31T14:07:38;20.50;75.50
48551;DHT22;34397;51.176;6.738;2023-07-31T14:10:11;20.50;75.50
48551;DHT22;34397;51.176;6.738;2023-07-31T14:12:43;20.50;74.30
48551;DHT22;34397;51.176;6.738;2023-07-31T14:15:14;20.40;74.10
48551;DHT22;34397;51.176;6.738;2023-07-31T14:17:46;20.40;74.70
48551;DHT22;34397;51.176;6.738;2023-07-31T14:20:18;20.30;73.40
48551;DHT22;34397;51.176;6.738;2023-07-31T14:22:49;20.20;74.60
48551;DHT22;34397;51.176;6.738;2023-07-31T14:25:23;20.20;74.90
48551;DHT22;34397;51.176;6.738;2023-07-31T14:27:54;20.20;75.10
48551;DHT22;34397;51.176;6.738;2023-07-31T14:30:26;20.10;74.70
48551;DHT22;34397;51.176;6.738;2023-07-31T14:32:58;20.10;75.10
48551;DHT22;34397;51.176;6.738;2023-07-31T14:35:31;20.10;75.50
48551;DHT22;34397;51.176;6.738;2023-07-31T14:38:03;20.00;74.90
48551;DHT22;34397;51.176;6.738;2023-07-31T14:40:36;20.00;75.50
48551;DHT22;34397;51.176;6.738;2023-07-31T14:43:08;20.00;75.80
48551;DHT22;34397;51.176;6.738;2023-07-31T14:45:40;20.00;75.60
48551;DHT22;34397;51.176;6.738;2023-07-31T14:48:12;20.00;75.70
48551;DHT22;34397;51.176;6.738;2023-07-31T14:50:44;20.10;75.70
48551;DHT22;34397;51.176;6.738;2023-07-31T14:53:16;20.10;74.90
48551;DHT22;34397;51.176;6.738;2023-07-31T14:55:49;20.10;75.60
48551;DHT22;34397;51.176;6.738;2023-07-31T14:58:20;20.20;75.20
48551;DHT22;34397;51.176;6.738;2023-07-31T15:00:53;20.20;75.30
48551;DHT22;34397;51.176;6.738;2023-07-31T15:03:24;20.30;74.70
48551;DHT22;34397;51.176;6.738;2023-07-31T15:05:56;20.30;74.30
48551;DHT22;34397;51.176;6.738;2023-07-31T15:08:28;20.30;73.70
48551;DHT22;34397;51.176;6.738;2023-07-31T15:11:01;20.30;73.10
48551;DHT22;34397;51.176;6.738;2023-07-31T15:13:33;20.20;73.10
48551;DHT22;34397;51.176;6.738;2023-07-31T15:16:04;20.20;73.90
48551;DHT22;34397;51.176;6.738;2023-07-31T15:18:36;20.20;74.30
48551;DHT22;34397;51.176;6.738;2023-07-31T15:21:08;20.20;74.70
48551;DHT22;34397;51.176;6.738;2023-07-31T15:23:40;20.30;74.30
48551;DHT22;34397;51.176;6.738;2023-07-31T15:26:13;20.30;73.30
48551;DHT22;34397;51.176;6.738;2023-07-31T15:28:47;20.20;71.30
48551;DHT22;34397;51.176;6.738;2023-07-31T15:31:20;20.10;71.70
48551;DHT22;34397;51.176;6.738;2023-07-31T15:33:52;20.10;72.50
48551;DHT22;34397;51.176;6.738;2023-07-31T15:36:24;20.10;73.50
48551;DHT22;34397;51.176;6.738;2023-07-31T15:38:56;20.10;73.20
48551;DHT22;34397;51.176;6.738;2023-07-31T15:41:29;20.10;73.10
48551;DHT22;34397;51.176;6.738;2023-07-31T15:44:01;20.10;72.80
48551;DHT22;34397;51.176;6.738;2023-07-31T15:46:33;20.10;73.00
48551;DHT22;34397;51.176;6.738;2023-07-31T15:49:05;20.10;73.30
48551;DHT22;34397;51.176;6.738;2023-07-31T15:51:36;20.00;73.40
48551;DHT22;34397;51.176;6.738;2023-07-31T15:54:08;20.10;73.70
48551;DHT22;34397;51.176;6.738;2023-07-31T15:56:41;20.10;73.60
48551;DHT22;34397;51.176;6.738;2023-07-31T15:59:13;20.00;72.90
48551;DHT22;34397;51.176;6.738;2023-07-31T16:01:44;20.00;73.70
48551;DHT22;34397;51.176;6.738;2023-07-31T16:04:16;20.00;71.90